sensor_id;sensor_type;location;lat;lon;timestamp;P1;durP1;ratioP1;P2;durP2;ratioP2
41217;SDS011;26950;50.960;7.138;2023-03-30T00:00:15;4.83;;;1.70;;
41217;SDS011;26950;50.960;7.138;2023-03-30T00:02:44;4.67;;;1.70;;
41217;SDS011;26950;50.960;7.138;2023-03-30T00:05:13;8.10;;;1.70;;
41217;SDS011;26950;50.960;7.138;2023-03-30T00:07:39;2.90;;;1.30;;
41217;SDS011;26950;50.960;7.138;2023-03-30T00:10:08;7.23;;;1.70;;
41217;SDS011;26950;50.960;7.138;2023-03-30T00:12:36;7.77;;;1.90;;
41217;SDS011;26950;50.960;7.138;2023-03-30T00:15:03;6.83;;;2.03;;
41217;SDS011;26950;50.960;7.138;2023-03-30T00:17:30;6.53;;;2.00;;
41217;SDS011;26950;50.960;7.138;2023-03-30T00:19:58;4.40;;;1.90;;
41217;SDS011;26950;50.960;7.138;2023-03-30T00:22:26;8.20;;;1.60;;
41217;SDS011;26950;50.960;7.138;2023-03-30T00:24:52;6.80;;;1.70;;
41217;SDS011;26950;50.960;7.138;2023-03-30T00:27:20;6.05;;;1.75;;
41217;SDS011;26950;50.960;7.138;2023-03-30T00:29:47;6.70;;;1.75;;
41217;SDS011;26950;50.960;7.138;2023-03-30T00:32:13;6.68;;;1.67;;
41217;SDS011;26950;50.960;7.138;2023-03-30T00:34:40;6.55;;;1.83;;
41217;SDS011;26950;50.960;7.138;2023-03-30T00:37:07;5.90;;;1.80;;
41217;SDS011;26950;50.960;7.138;2023-03-30T00:39:33;9.00;;;1.93;;
41217;SDS011;26950;50.960;7.138;2023-03-30T00:42:00;7.43;;;1.93;;
41217;SDS011;26950;50.960;7.138;2023-03-30T00:47:31;4.00;;;2.10;;
41217;SDS011;26950;50.960;7.138;2023-03-30T00:49:57;11.03;;;1.63;;
41217;SDS011;26950;50.960;7.138;2023-03-30T00:52:24;8.63;;;1.83;;
41217;SDS011;26950;50.960;7.138;2023-03-30T00:54:52;6.23;;;1.97;;
41217;SDS011;26950;50.960;7.138;2023-03-30T00:57:21;5.67;;;1.50;;
41217;SDS011;26950;50.960;7.138;2023-03-30T00:59:49;5.23;;;1.67;;
41217;SDS011;26950;50.960;7.138;2023-03-30T01:02:17;7.13;;;1.70;;
41217;SDS011;26950;50.960;7.138;2023-03-30T01:04:46;5.67;;;1.80;;
41217;SDS011;26950;50.960;7.138;2023-03-30T01:07:17;13.47;;;2.30;;
41217;SDS011;26950;50.960;7.138;2023-03-30T01:09:43;7.20;;;1.87;;
41217;SDS011;26950;50.960;7.138;2023-03-30T01:12:10;10.33;;;1.90;;
41217;SDS011;26950;50.960;7.138;2023-03-30T01:14:37;5.87;;;1.63;;
41217;SDS011;26950;50.960;7.138;2023-03-30T01:17:05;8.77;;;2.13;;
41217;SDS011;26950;50.960;7.138;2023-03-30T01:19:45;6.67;;;1.67;;
41217;SDS011;26950;50.960;7.138;2023-03-30T01:22:40;6.00;;;1.70;;
41217;SDS011;26950;50.960;7.138;2023-03-30T01:28:16;5.90;;;1.70;;
41217;SDS011;26950;50.960;7.138;2023-03-30T01:30:53;7.20;;;1.87;;
41217;SDS011;26950;50.960;7.138;2023-03-30T01:33:50;8.73;;;1.70;;
41217;SDS011;26950;50.960;7.138;2023-03-30T01:36:32;6.47;;;1.73;;
41217;SDS011;26950;50.960;7.138;2023-03-30T01:39:21;5.07;;;2.03;;
41217;SDS011;26950;50.960;7.138;2023-03-30T01:41:57;7.27;;;1.80;;
41217;SDS011;26950;50.960;7.138;2023-03-30T01:44:31;10.43;;;1.80;;
41217;SDS011;26950;50.960;7.138;2023-03-30T01:47:06;5.25;;;1.70;;
41217;SDS011;26950;50.960;7.138;2023-03-30T01:49:40;8.47;;;2.33;;
41217;SDS011;26950;50.960;7.138;2023-03-30T01:52:12;5.30;;;2.17;;
41217;SDS011;26950;50.960;7.138;2023-03-30T01:54:46;4.83;;;1.50;;
41217;SDS011;26950;50.960;7.138;2023-03-30T01:57:16;7.32;;;2.20;;
41217;SDS011;26950;50.960;7.138;2023-03-30T01:59:47;10.80;;;1.90;;
41217;SDS011;26950;50.960;7.138;2023-03-30T02:02:21;6.30;;;2.05;;
41217;SDS011;26950;50.960;7.138;2023-03-30T02:04:50;7.50;;;2.07;;
41217;SDS011;26950;50.960;7.138;2023-03-30T02:07:19;10.95;;;2.08;;
41217;SDS011;26950;50.960;7.138;2023-03-30T02:09:51;8.45;;;1.95;;
41217;SDS011;26950;50.960;7.138;2023-03-30T02:12:20;7.38;;;1.88;;
41217;SDS011;26950;50.960;7.138;2023-03-30T02:14:49;7.65;;;1.85;;
41217;SDS011;26950;50.960;7.138;2023-03-30T02:17:19;6.82;;;2.03;;
41217;SDS011;26950;50.960;7.138;2023-03-30T02:19:49;5.27;;;2.10;;
41217;SDS011;26950;50.960;7.138;2023-03-30T02:22:16;9.75;;;1.92;;
41217;SDS011;26950;50.960;7.138;2023-03-30T02:24:45;8.57;;;1.80;;
41217;SDS011;26950;50.960;7.138;2023-03-30T02:27:15;9.45;;;1.67;;
41217;SDS011;26950;50.960;7.138;2023-03-30T02:29:42;8.02;;;2.05;;
41217;SDS011;26950;50.960;7.138;2023-03-30T02:32:13;4.53;;;1.70;;
41217;SDS011;26950;50.960;7.138;2023-03-30T02:34:50;8.90;;;2.20;;
41217;SDS011;26950;50.960;7.138;2023-03-30T02:37:37;10.27;;;2.27;;
41217;SDS011;26950;50.960;7.138;2023-03-30T02:40:30;9.98;;;2.22;;
41217;SDS011;26950;50.960;7.138;2023-03-30T02:43:12;11.30;;;2.20;;
41217;SDS011;26950;50.960;7.138;2023-03-30T02:45:50;8.87;;;1.80;;
41217;SDS011;26950;50.960;7.138;2023-03-30T02:48:29;12.07;;;2.33;;
41217;SDS011;26950;50.960;7.138;2023-03-30T02:51:05;11.85;;;2.00;;
41217;SDS011;26950;50.960;7.138;2023-03-30T02:53:39;5.97;;;1.95;;
41217;SDS011;26950;50.960;7.138;2023-03-30T02:56:11;6.05;;;1.67;;
41217;SDS011;26950;50.960;7.138;2023-03-30T02:58:45;11.07;;;2.40;;
41217;SDS011;26950;50.960;7.138;2023-03-30T03:01:16;10.60;;;2.05;;
41217;SDS011;26950;50.960;7.138;2023-03-30T03:03:49;8.52;;;2.40;;
41217;SDS011;26950;50.960;7.138;2023-03-30T03:06:18;8.15;;;2.33;;
41217;SDS011;26950;50.960;7.138;2023-03-30T03:08:45;8.50;;;1.90;;
41217;SDS011;26950;50.960;7.138;2023-03-30T03:11:13;10.95;;;2.10;;
41217;SDS011;26950;50.960;7.138;2023-03-30T03:13:40;6.80;;;1.83;;
41217;SDS011;26950;50.960;7.138;2023-03-30T03:16:08;8.33;;;2.00;;
41217;SDS011;26950;50.960;7.138;2023-03-30T03:18:36;9.75;;;2.20;;
41217;SDS011;26950;50.960;7.138;2023-03-30T03:21:04;6.60;;;2.00;;
41217;SDS011;26950;50.960;7.138;2023-03-30T03:23:31;11.23;;;2.15;;
41217;SDS011;26950;50.960;7.138;2023-03-30T03:25:57;7.27;;;2.10;;
41217;SDS011;26950;50.960;7.138;2023-03-30T03:28:25;11.75;;;2.08;;
41217;SDS011;26950;50.960;7.138;2023-03-30T03:30:51;11.48;;;2.33;;
41217;SDS011;26950;50.960;7.138;2023-03-30T03:33:19;8.07;;;2.15;;
41217;SDS011;26950;50.960;7.138;2023-03-30T03:35:46;10.10;;;2.80;;
41217;SDS011;26950;50.960;7.138;2023-03-30T03:38:17;10.57;;;2.20;;
41217;SDS011;26950;50.960;7.138;2023-03-30T03:40:47;11.18;;;2.10;;
41217;SDS011;26950;50.960;7.138;2023-03-30T03:43:14;7.63;;;1.67;;
41217;SDS011;26950;50.960;7.138;2023-03-30T03:45:41;9.03;;;2.33;;
41217;SDS011;26950;50.960;7.138;2023-03-30T03:48:07;12.50;;;2.60;;
41217;SDS011;26950;50.960;7.138;2023-03-30T03:50:35;4.90;;;2.10;;
41217;SDS011;26950;50.960;7.138;2023-03-30T03:53:02;7.37;;;2.27;;
41217;SDS011;26950;50.960;7.138;2023-03-30T03:55:29;8.57;;;2.23;;
41217;SDS011;26950;50.960;7.138;2023-03-30T03:57:58;7.83;;;1.90;;
41217;SDS011;26950;50.960;7.138;2023-03-30T04:00:25;10.30;;;1.83;;
41217;SDS011;26950;50.960;7.138;2023-03-30T04:02:51;8.27;;;2.43;;
41217;SDS011;26950;50.960;7.138;2023-03-30T04:05:18;10.77;;;2.20;;
41217;SDS011;26950;50.960;7.138;2023-03-30T04:07:46;8.93;;;2.57;;
41217;SDS011;26950;50.960;7.138;2023-03-30T04:10:12;7.03;;;2.20;;
41217;SDS011;26950;50.960;7.138;2023-03-30T04:12:39;8.67;;;2.40;;
41217;SDS011;26950;50.960;7.138;2023-03-30T04:15:06;13.03;;;2.20;;
41217;SDS011;26950;50.960;7.138;2023-03-30T04:17:33;12.10;;;2.37;;
41217;SDS011;26950;50.960;7.138;2023-03-30T04:20:01;11.60;;;2.30;;
41217;SDS011;26950;50.960;7.138;2023-03-30T04:22:29;9.90;;;2.40;;
41217;SDS011;26950;50.960;7.138;2023-03-30T04:24:58;14.07;;;3.23;;
41217;SDS011;26950;50.960;7.138;2023-03-30T04:27:25;6.93;;;2.13;;
41217;SDS011;26950;50.960;7.138;2023-03-30T04:29:52;10.53;;;2.50;;
41217;SDS011;26950;50.960;7.138;2023-03-30T04:32:21;13.27;;;2.30;;
41217;SDS011;26950;50.960;7.138;2023-03-30T04:34:48;11.23;;;3.00;;
41217;SDS011;26950;50.960;7.138;2023-03-30T04:37:18;8.23;;;2.63;;
41217;SDS011;26950;50.960;7.138;2023-03-30T04:39:48;12.60;;;2.70;;
41217;SDS011;26950;50.960;7.138;2023-03-30T04:42:16;9.40;;;2.50;;
41217;SDS011;26950;50.960;7.138;2023-03-30T04:44:44;9.33;;;2.50;;
41217;SDS011;26950;50.960;7.138;2023-03-30T04:47:10;10.20;;;3.03;;
41217;SDS011;26950;50.960;7.138;2023-03-30T04:49:37;9.40;;;2.40;;
41217;SDS011;26950;50.960;7.138;2023-03-30T04:52:03;12.10;;;2.43;;
41217;SDS011;26950;50.960;7.138;2023-03-30T04:54:30;7.80;;;2.30;;
41217;SDS011;26950;50.960;7.138;2023-03-30T04:56:56;10.97;;;2.63;;
41217;SDS011;26950;50.960;7.138;2023-03-30T04:59:24;11.07;;;2.60;;
41217;SDS011;26950;50.960;7.138;2023-03-30T05:01:50;12.33;;;2.57;;
41217;SDS011;26950;50.960;7.138;2023-03-30T05:04:17;15.03;;;3.10;;
41217;SDS011;26950;50.960;7.138;2023-03-30T05:06:43;11.23;;;3.23;;
41217;SDS011;26950;50.960;7.138;2023-03-30T05:09:09;11.97;;;2.60;;
41217;SDS011;26950;50.960;7.138;2023-03-30T05:11:36;11.97;;;2.40;;
41217;SDS011;26950;50.960;7.138;2023-03-30T05:14:03;5.60;;;2.10;;
41217;SDS011;26950;50.960;7.138;2023-03-30T05:16:31;10.37;;;2.57;;
41217;SDS011;26950;50.960;7.138;2023-03-30T05:18:58;8.50;;;2.33;;
41217;SDS011;26950;50.960;7.138;2023-03-30T05:21:24;10.97;;;2.73;;
41217;SDS011;26950;50.960;7.138;2023-03-30T05:23:51;11.23;;;2.50;;
41217;SDS011;26950;50.960;7.138;2023-03-30T05:26:17;11.23;;;3.07;;
41217;SDS011;26950;50.960;7.138;2023-03-30T05:28:44;11.03;;;2.90;;
41217;SDS011;26950;50.960;7.138;2023-03-30T05:31:11;15.93;;;3.40;;
41217;SDS011;26950;50.960;7.138;2023-03-30T05:33:39;13.15;;;3.17;;
41217;SDS011;26950;50.960;7.138;2023-03-30T05:36:06;12.77;;;2.73;;
41217;SDS011;26950;50.960;7.138;2023-03-30T05:38:33;13.67;;;3.73;;
41217;SDS011;26950;50.960;7.138;2023-03-30T05:41:00;15.87;;;3.37;;
41217;SDS011;26950;50.960;7.138;2023-03-30T05:43:28;11.33;;;3.20;;
41217;SDS011;26950;50.960;7.138;2023-03-30T05:45:55;17.23;;;3.30;;
41217;SDS011;26950;50.960;7.138;2023-03-30T05:48:21;13.30;;;3.38;;
41217;SDS011;26950;50.960;7.138;2023-03-30T05:50:49;13.82;;;3.35;;
41217;SDS011;26950;50.960;7.138;2023-03-30T05:53:16;14.88;;;3.20;;
41217;SDS011;26950;50.960;7.138;2023-03-30T05:55:43;12.33;;;2.97;;
41217;SDS011;26950;50.960;7.138;2023-03-30T05:58:10;10.60;;;2.97;;
41217;SDS011;26950;50.960;7.138;2023-03-30T06:00:37;12.60;;;3.40;;
41217;SDS011;26950;50.960;7.138;2023-03-30T06:03:05;12.45;;;3.28;;
41217;SDS011;26950;50.960;7.138;2023-03-30T06:05:33;12.00;;;3.45;;
41217;SDS011;26950;50.960;7.138;2023-03-30T06:08:01;15.57;;;3.25;;
41217;SDS011;26950;50.960;7.138;2023-03-30T06:10:28;13.65;;;3.10;;
41217;SDS011;26950;50.960;7.138;2023-03-30T06:12:55;12.10;;;3.30;;
41217;SDS011;26950;50.960;7.138;2023-03-30T06:15:21;12.35;;;3.30;;
41217;SDS011;26950;50.960;7.138;2023-03-30T06:17:48;11.25;;;3.10;;
41217;SDS011;26950;50.960;7.138;2023-03-30T06:20:16;13.35;;;2.97;;
41217;SDS011;26950;50.960;7.138;2023-03-30T06:22:45;8.75;;;2.90;;
41217;SDS011;26950;50.960;7.138;2023-03-30T06:25:13;13.30;;;2.95;;
41217;SDS011;26950;50.960;7.138;2023-03-30T06:27:40;11.90;;;2.70;;
41217;SDS011;26950;50.960;7.138;2023-03-30T06:30:07;8.60;;;2.93;;
41217;SDS011;26950;50.960;7.138;2023-03-30T06:32:34;9.87;;;2.90;;
41217;SDS011;26950;50.960;7.138;2023-03-30T06:35:01;11.13;;;2.90;;
41217;SDS011;26950;50.960;7.138;2023-03-30T06:37:29;12.23;;;2.87;;
41217;SDS011;26950;50.960;7.138;2023-03-30T06:39:56;8.43;;;2.80;;
41217;SDS011;26950;50.960;7.138;2023-03-30T06:42:24;10.70;;;3.08;;
41217;SDS011;26950;50.960;7.138;2023-03-30T06:44:51;8.48;;;2.88;;
41217;SDS011;26950;50.960;7.138;2023-03-30T06:47:18;11.57;;;2.97;;
41217;SDS011;26950;50.960;7.138;2023-03-30T06:49:46;9.30;;;2.70;;
41217;SDS011;26950;50.960;7.138;2023-03-30T06:52:13;12.03;;;2.90;;
41217;SDS011;26950;50.960;7.138;2023-03-30T06:54:40;8.07;;;2.70;;
41217;SDS011;26950;50.960;7.138;2023-03-30T06:57:07;8.52;;;2.95;;
41217;SDS011;26950;50.960;7.138;2023-03-30T06:59:35;11.50;;;2.83;;
41217;SDS011;26950;50.960;7.138;2023-03-30T07:02:01;11.70;;;2.87;;
41217;SDS011;26950;50.960;7.138;2023-03-30T07:04:28;14.77;;;2.83;;
41217;SDS011;26950;50.960;7.138;2023-03-30T07:06:55;10.77;;;2.43;;
41217;SDS011;26950;50.960;7.138;2023-03-30T07:09:21;8.73;;;2.92;;
41217;SDS011;26950;50.960;7.138;2023-03-30T07:11:48;6.33;;;2.50;;
41217;SDS011;26950;50.960;7.138;2023-03-30T07:14:14;8.93;;;2.13;;
41217;SDS011;26950;50.960;7.138;2023-03-30T07:16:42;11.25;;;2.97;;
41217;SDS011;26950;50.960;7.138;2023-03-30T07:19:09;10.80;;;2.47;;
41217;SDS011;26950;50.960;7.138;2023-03-30T07:21:35;8.40;;;2.47;;
41217;SDS011;26950;50.960;7.138;2023-03-30T07:24:01;12.38;;;2.60;;
41217;SDS011;26950;50.960;7.138;2023-03-30T07:26:28;12.30;;;2.40;;
41217;SDS011;26950;50.960;7.138;2023-03-30T07:28:55;12.07;;;2.53;;
41217;SDS011;26950;50.960;7.138;2023-03-30T07:31:22;7.60;;;2.23;;
41217;SDS011;26950;50.960;7.138;2023-03-30T07:33:50;7.90;;;2.53;;
41217;SDS011;26950;50.960;7.138;2023-03-30T07:36:17;7.33;;;2.27;;
41217;SDS011;26950;50.960;7.138;2023-03-30T07:38:44;10.67;;;2.33;;
41217;SDS011;26950;50.960;7.138;2023-03-30T07:41:11;8.80;;;2.40;;
41217;SDS011;26950;50.960;7.138;2023-03-30T07:43:38;10.48;;;2.60;;
41217;SDS011;26950;50.960;7.138;2023-03-30T07:46:05;9.25;;;2.70;;
41217;SDS011;26950;50.960;7.138;2023-03-30T07:48:32;12.65;;;2.38;;
41217;SDS011;26950;50.960;7.138;2023-03-30T07:51:00;5.65;;;1.85;;
41217;SDS011;26950;50.960;7.138;2023-03-30T07:53:28;6.38;;;2.40;;
41217;SDS011;26950;50.960;7.138;2023-03-30T07:55:54;13.00;;;2.60;;
41217;SDS011;26950;50.960;7.138;2023-03-30T07:58:21;11.50;;;2.40;;
41217;SDS011;26950;50.960;7.138;2023-03-30T08:00:48;7.57;;;2.55;;
41217;SDS011;26950;50.960;7.138;2023-03-30T08:03:14;10.43;;;2.45;;
41217;SDS011;26950;50.960;7.138;2023-03-30T08:05:41;13.05;;;2.67;;
41217;SDS011;26950;50.960;7.138;2023-03-30T08:08:09;8.35;;;2.35;;
41217;SDS011;26950;50.960;7.138;2023-03-30T08:10:37;5.15;;;2.13;;
41217;SDS011;26950;50.960;7.138;2023-03-30T08:13:04;11.30;;;2.58;;
41217;SDS011;26950;50.960;7.138;2023-03-30T08:15:30;10.63;;;2.63;;
41217;SDS011;26950;50.960;7.138;2023-03-30T08:17:57;6.68;;;2.47;;
41217;SDS011;26950;50.960;7.138;2023-03-30T08:20:28;9.38;;;2.22;;
41217;SDS011;26950;50.960;7.138;2023-03-30T08:22:55;10.52;;;1.80;;
41217;SDS011;26950;50.960;7.138;2023-03-30T08:25:22;5.88;;;1.50;;
41217;SDS011;26950;50.960;7.138;2023-03-30T08:27:49;6.65;;;1.30;;
41217;SDS011;26950;50.960;7.138;2023-03-30T08:30:15;6.53;;;1.90;;
41217;SDS011;26950;50.960;7.138;2023-03-30T08:32:42;5.05;;;1.50;;
41217;SDS011;26950;50.960;7.138;2023-03-30T08:35:08;5.53;;;1.40;;
41217;SDS011;26950;50.960;7.138;2023-03-30T08:37:35;4.93;;;1.60;;
41217;SDS011;26950;50.960;7.138;2023-03-30T08:40:02;5.97;;;1.75;;
41217;SDS011;26950;50.960;7.138;2023-03-30T08:42:43;7.93;;;1.95;;
41217;SDS011;26950;50.960;7.138;2023-03-30T08:45:20;6.97;;;1.58;;
41217;SDS011;26950;50.960;7.138;2023-03-30T08:47:50;6.22;;;1.30;;
41217;SDS011;26950;50.960;7.138;2023-03-30T08:50:18;5.32;;;1.45;;
41217;SDS011;26950;50.960;7.138;2023-03-30T08:52:55;7.68;;;1.50;;
41217;SDS011;26950;50.960;7.138;2023-03-30T08:55:22;7.30;;;1.52;;
41217;SDS011;26950;50.960;7.138;2023-03-30T08:57:54;5.28;;;1.45;;
41217;SDS011;26950;50.960;7.138;2023-03-30T09:00:28;5.63;;;1.40;;
41217;SDS011;26950;50.960;7.138;2023-03-30T09:03:04;5.50;;;1.50;;
41217;SDS011;26950;50.960;7.138;2023-03-30T09:05:37;3.38;;;1.17;;
41217;SDS011;26950;50.960;7.138;2023-03-30T09:08:08;6.57;;;1.83;;
41217;SDS011;26950;50.960;7.138;2023-03-30T09:10:44;4.90;;;1.65;;
41217;SDS011;26950;50.960;7.138;2023-03-30T09:13:17;5.25;;;1.35;;
41217;SDS011;26950;50.960;7.138;2023-03-30T09:15:45;7.03;;;1.60;;
41217;SDS011;26950;50.960;7.138;2023-03-30T09:18:18;7.63;;;1.60;;
41217;SDS011;26950;50.960;7.138;2023-03-30T09:20:49;5.80;;;1.10;;
41217;SDS011;26950;50.960;7.138;2023-03-30T09:23:17;4.45;;;1.30;;
41217;SDS011;26950;50.960;7.138;2023-03-30T09:25:45;4.78;;;1.48;;
41217;SDS011;26950;50.960;7.138;2023-03-30T09:28:19;5.63;;;1.63;;
41217;SDS011;26950;50.960;7.138;2023-03-30T09:30:52;6.07;;;1.42;;
41217;SDS011;26950;50.960;7.138;2023-03-30T09:33:26;5.80;;;1.33;;
41217;SDS011;26950;50.960;7.138;2023-03-30T09:35:59;5.07;;;1.70;;
41217;SDS011;26950;50.960;7.138;2023-03-30T09:38:35;6.30;;;1.40;;
41217;SDS011;26950;50.960;7.138;2023-03-30T09:41:09;6.47;;;1.60;;
41217;SDS011;26950;50.960;7.138;2023-03-30T09:43:55;6.57;;;1.77;;
41217;SDS011;26950;50.960;7.138;2023-03-30T09:46:24;8.45;;;1.70;;
41217;SDS011;26950;50.960;7.138;2023-03-30T09:48:50;7.20;;;1.90;;
41217;SDS011;26950;50.960;7.138;2023-03-30T09:51:18;8.23;;;1.87;;
41217;SDS011;26950;50.960;7.138;2023-03-30T09:53:47;7.20;;;1.40;;
41217;SDS011;26950;50.960;7.138;2023-03-30T09:56:16;7.53;;;1.67;;
41217;SDS011;26950;50.960;7.138;2023-03-30T09:58:46;5.13;;;1.30;;
41217;SDS011;26950;50.960;7.138;2023-03-30T10:01:14;5.97;;;1.10;;
41217;SDS011;26950;50.960;7.138;2023-03-30T10:03:43;6.80;;;1.63;;
41217;SDS011;26950;50.960;7.138;2023-03-30T10:06:11;6.23;;;1.20;;
41217;SDS011;26950;50.960;7.138;2023-03-30T10:08:42;3.57;;;0.90;;
41217;SDS011;26950;50.960;7.138;2023-03-30T10:11:18;5.67;;;1.00;;
41217;SDS011;26950;50.960;7.138;2023-03-30T10:13:46;3.97;;;1.00;;
41217;SDS011;26950;50.960;7.138;2023-03-30T10:16:19;6.60;;;1.23;;
41217;SDS011;26950;50.960;7.138;2023-03-30T10:18:51;5.90;;;1.20;;
41217;SDS011;26950;50.960;7.138;2023-03-30T10:21:19;4.53;;;0.90;;
41217;SDS011;26950;50.960;7.138;2023-03-30T10:23:58;5.57;;;0.90;;
41217;SDS011;26950;50.960;7.138;2023-03-30T10:26:27;5.53;;;1.30;;
41217;SDS011;26950;50.960;7.138;2023-03-30T10:28:56;8.83;;;1.30;;
41217;SDS011;26950;50.960;7.138;2023-03-30T10:31:30;7.17;;;1.03;;
41217;SDS011;26950;50.960;7.138;2023-03-30T10:34:00;2.30;;;0.97;;
41217;SDS011;26950;50.960;7.138;2023-03-30T10:36:29;7.30;;;1.23;;
41217;SDS011;26950;50.960;7.138;2023-03-30T10:39:05;3.13;;;0.80;;
41217;SDS011;26950;50.960;7.138;2023-03-30T10:41:37;4.67;;;1.20;;
41217;SDS011;26950;50.960;7.138;2023-03-30T10:44:12;4.80;;;1.00;;
41217;SDS011;26950;50.960;7.138;2023-03-30T10:46:46;4.43;;;1.23;;
41217;SDS011;26950;50.960;7.138;2023-03-30T10:49:16;5.27;;;1.10;;
41217;SDS011;26950;50.960;7.138;2023-03-30T10:51:56;6.53;;;1.00;;
41217;SDS011;26950;50.960;7.138;2023-03-30T10:54:29;6.70;;;1.07;;
41217;SDS011;26950;50.960;7.138;2023-03-30T10:56:59;5.53;;;1.00;;
41217;SDS011;26950;50.960;7.138;2023-03-30T10:59:35;3.43;;;0.80;;
41217;SDS011;26950;50.960;7.138;2023-03-30T11:02:19;4.67;;;1.03;;
41217;SDS011;26950;50.960;7.138;2023-03-30T11:04:56;3.97;;;0.80;;
41217;SDS011;26950;50.960;7.138;2023-03-30T11:07:27;4.00;;;0.90;;
41217;SDS011;26950;50.960;7.138;2023-03-30T11:09:59;5.80;;;1.00;;
41217;SDS011;26950;50.960;7.138;2023-03-30T11:12:33;3.80;;;0.83;;
41217;SDS011;26950;50.960;7.138;2023-03-30T11:15:05;5.60;;;0.90;;
41217;SDS011;26950;50.960;7.138;2023-03-30T11:17:41;5.43;;;0.97;;
41217;SDS011;26950;50.960;7.138;2023-03-30T11:20:17;3.10;;;0.93;;
41217;SDS011;26950;50.960;7.138;2023-03-30T11:22:48;3.53;;;1.00;;
41217;SDS011;26950;50.960;7.138;2023-03-30T11:25:19;2.67;;;0.73;;
41217;SDS011;26950;50.960;7.138;2023-03-30T11:27:50;3.97;;;1.33;;
41217;SDS011;26950;50.960;7.138;2023-03-30T11:30:20;4.72;;;0.90;;
41217;SDS011;26950;50.960;7.138;2023-03-30T11:32:54;5.82;;;1.42;;
41217;SDS011;26950;50.960;7.138;2023-03-30T11:35:26;6.13;;;1.30;;
41217;SDS011;26950;50.960;7.138;2023-03-30T11:38:00;4.25;;;0.90;;
41217;SDS011;26950;50.960;7.138;2023-03-30T11:40:34;6.33;;;1.37;;
41217;SDS011;26950;50.960;7.138;2023-03-30T11:43:07;4.33;;;1.23;;
41217;SDS011;26950;50.960;7.138;2023-03-30T11:45:48;6.07;;;1.20;;
41217;SDS011;26950;50.960;7.138;2023-03-30T11:48:30;7.10;;;1.57;;
41217;SDS011;26950;50.960;7.138;2023-03-30T11:51:31;5.90;;;1.40;;
41217;SDS011;26950;50.960;7.138;2023-03-30T11:54:11;9.50;;;1.93;;
41217;SDS011;26950;50.960;7.138;2023-03-30T11:56:50;9.27;;;1.47;;
41217;SDS011;26950;50.960;7.138;2023-03-30T11:59:27;6.00;;;1.53;;
41217;SDS011;26950;50.960;7.138;2023-03-30T12:02:04;6.00;;;1.42;;
41217;SDS011;26950;50.960;7.138;2023-03-30T12:04:37;6.47;;;1.20;;
41217;SDS011;26950;50.960;7.138;2023-03-30T12:07:13;8.55;;;1.83;;
41217;SDS011;26950;50.960;7.138;2023-03-30T12:09:51;3.83;;;0.93;;
41217;SDS011;26950;50.960;7.138;2023-03-30T12:12:21;8.17;;;1.30;;
41217;SDS011;26950;50.960;7.138;2023-03-30T12:15:01;8.93;;;1.27;;
41217;SDS011;26950;50.960;7.138;2023-03-30T12:17:40;5.20;;;1.20;;
41217;SDS011;26950;50.960;7.138;2023-03-30T12:20:18;4.47;;;1.02;;
41217;SDS011;26950;50.960;7.138;2023-03-30T12:22:55;4.15;;;0.88;;
41217;SDS011;26950;50.960;7.138;2023-03-30T12:25:27;3.17;;;0.90;;
41217;SDS011;26950;50.960;7.138;2023-03-30T12:28:03;3.10;;;0.60;;
41217;SDS011;26950;50.960;7.138;2023-03-30T12:30:43;3.10;;;0.70;;
41217;SDS011;26950;50.960;7.138;2023-03-30T12:33:19;3.53;;;0.80;;
41217;SDS011;26950;50.960;7.138;2023-03-30T12:35:55;4.78;;;0.63;;
41217;SDS011;26950;50.960;7.138;2023-03-30T12:38:24;7.03;;;0.85;;
41217;SDS011;26950;50.960;7.138;2023-03-30T12:40:53;4.00;;;1.10;;
41217;SDS011;26950;50.960;7.138;2023-03-30T12:43:28;2.80;;;0.70;;
41217;SDS011;26950;50.960;7.138;2023-03-30T12:46:04;4.32;;;0.80;;
41217;SDS011;26950;50.960;7.138;2023-03-30T12:48:41;5.88;;;0.90;;
41217;SDS011;26950;50.960;7.138;2023-03-30T12:51:20;3.22;;;0.90;;
41217;SDS011;26950;50.960;7.138;2023-03-30T12:54:09;4.18;;;0.90;;
41217;SDS011;26950;50.960;7.138;2023-03-30T12:56:50;4.87;;;0.90;;
41217;SDS011;26950;50.960;7.138;2023-03-30T12:59:26;4.75;;;1.10;;
41217;SDS011;26950;50.960;7.138;2023-03-30T13:02:15;11.07;;;1.20;;
41217;SDS011;26950;50.960;7.138;2023-03-30T13:04:55;5.10;;;1.20;;
41217;SDS011;26950;50.960;7.138;2023-03-30T13:07:25;6.10;;;1.33;;
41217;SDS011;26950;50.960;7.138;2023-03-30T13:09:56;7.15;;;1.38;;
41217;SDS011;26950;50.960;7.138;2023-03-30T13:12:32;5.90;;;1.47;;
41217;SDS011;26950;50.960;7.138;2023-03-30T13:15:04;6.05;;;1.35;;
41217;SDS011;26950;50.960;7.138;2023-03-30T13:17:57;5.07;;;1.20;;
41217;SDS011;26950;50.960;7.138;2023-03-30T13:20:28;4.67;;;1.17;;
41217;SDS011;26950;50.960;7.138;2023-03-30T13:23:04;7.22;;;1.58;;
41217;SDS011;26950;50.960;7.138;2023-03-30T13:25:50;8.00;;;1.50;;
41217;SDS011;26950;50.960;7.138;2023-03-30T13:31:17;7.30;;;1.70;;
41217;SDS011;26950;50.960;7.138;2023-03-30T13:33:56;9.07;;;1.77;;
41217;SDS011;26950;50.960;7.138;2023-03-30T13:36:32;7.63;;;1.43;;
41217;SDS011;26950;50.960;7.138;2023-03-30T13:39:07;9.73;;;1.88;;
41217;SDS011;26950;50.960;7.138;2023-03-30T13:41:42;6.22;;;1.25;;
41217;SDS011;26950;50.960;7.138;2023-03-30T13:44:24;4.87;;;1.33;;
41217;SDS011;26950;50.960;7.138;2023-03-30T13:47:03;7.37;;;1.47;;
41217;SDS011;26950;50.960;7.138;2023-03-30T13:49:38;6.40;;;1.40;;
41217;SDS011;26950;50.960;7.138;2023-03-30T13:52:15;5.17;;;1.20;;
41217;SDS011;26950;50.960;7.138;2023-03-30T13:54:45;6.00;;;1.30;;
41217;SDS011;26950;50.960;7.138;2023-03-30T13:57:13;3.70;;;1.20;;
41217;SDS011;26950;50.960;7.138;2023-03-30T13:59:45;6.63;;;1.10;;
41217;SDS011;26950;50.960;7.138;2023-03-30T14:02:16;6.83;;;1.40;;
41217;SDS011;26950;50.960;7.138;2023-03-30T14:04:46;5.17;;;1.20;;
41217;SDS011;26950;50.960;7.138;2023-03-30T14:07:15;2.20;;;0.60;;
41217;SDS011;26950;50.960;7.138;2023-03-30T14:12:32;3.17;;;0.90;;
41217;SDS011;26950;50.960;7.138;2023-03-30T14:15:00;3.97;;;1.00;;
41217;SDS011;26950;50.960;7.138;2023-03-30T14:17:27;3.13;;;0.70;;
41217;SDS011;26950;50.960;7.138;2023-03-30T14:19:57;5.43;;;1.00;;
41217;SDS011;26950;50.960;7.138;2023-03-30T14:22:35;3.53;;;0.90;;
41217;SDS011;26950;50.960;7.138;2023-03-30T14:25:19;1.87;;;0.60;;
41217;SDS011;26950;50.960;7.138;2023-03-30T14:27:48;6.30;;;1.13;;
41217;SDS011;26950;50.960;7.138;2023-03-30T14:30:17;5.27;;;1.00;;
41217;SDS011;26950;50.960;7.138;2023-03-30T14:32:44;5.17;;;1.10;;
41217;SDS011;26950;50.960;7.138;2023-03-30T14:35:13;3.23;;;1.00;;
41217;SDS011;26950;50.960;7.138;2023-03-30T14:37:42;7.97;;;1.20;;
41217;SDS011;26950;50.960;7.138;2023-03-30T14:40:12;9.57;;;1.13;;
41217;SDS011;26950;50.960;7.138;2023-03-30T14:42:40;6.43;;;1.20;;
41217;SDS011;26950;50.960;7.138;2023-03-30T14:45:08;10.47;;;1.37;;
41217;SDS011;26950;50.960;7.138;2023-03-30T14:47:36;6.27;;;1.37;;
41217;SDS011;26950;50.960;7.138;2023-03-30T14:50:03;4.90;;;1.10;;
41217;SDS011;26950;50.960;7.138;2023-03-30T14:52:37;5.90;;;1.30;;
41217;SDS011;26950;50.960;7.138;2023-03-30T14:55:05;6.27;;;1.43;;
41217;SDS011;26950;50.960;7.138;2023-03-30T14:57:36;6.33;;;1.10;;
41217;SDS011;26950;50.960;7.138;2023-03-30T15:00:06;4.43;;;1.17;;
41217;SDS011;26950;50.960;7.138;2023-03-30T15:02:44;7.17;;;1.50;;
41217;SDS011;26950;50.960;7.138;2023-03-30T15:05:14;4.73;;;1.37;;
41217;SDS011;26950;50.960;7.138;2023-03-30T15:07:43;5.03;;;1.30;;
41217;SDS011;26950;50.960;7.138;2023-03-30T15:10:19;8.67;;;1.47;;
41217;SDS011;26950;50.960;7.138;2023-03-30T15:12:48;9.63;;;1.60;;
41217;SDS011;26950;50.960;7.138;2023-03-30T15:15:16;8.83;;;1.70;;